createdAt,value
2022-11-28T00:01:24.736Z,90.90
2022-11-28T00:03:51.789Z,90.90
2022-11-28T00:06:18.901Z,90.80
2022-11-28T00:08:45.976Z,90.80
2022-11-28T00:11:15.237Z,90.80
2022-11-28T00:13:42.992Z,90.80
2022-11-28T00:16:15.296Z,90.80
2022-11-28T00:18:42.298Z,90.70
2022-11-28T00:21:12.448Z,90.70
2022-11-28T00:23:39.919Z,90.70
2022-11-28T00:26:31.328Z,90.90
2022-11-28T00:28:59.051Z,91.00
2022-11-28T00:31:31.488Z,91.20
2022-11-28T00:33:58.932Z,91.20
2022-11-28T00:36:25.716Z,91.30
2022-11-28T00:38:52.575Z,91.30
2022-11-28T00:41:21.939Z,91.40
2022-11-28T00:43:50.240Z,91.30
2022-11-28T00:46:18.841Z,91.20
2022-11-28T00:48:46.120Z,91.00
2022-11-28T00:51:22.410Z,91.00
2022-11-28T00:53:51.651Z,91.10
2022-11-28T00:56:24.988Z,91.20
2022-11-28T00:58:52.110Z,91.20
2022-11-28T01:01:25.310Z,91.20
2022-11-28T01:03:54.275Z,91.20
2022-11-28T01:06:27.080Z,91.30
2022-11-28T01:08:54.571Z,91.30
2022-11-28T01:11:22.305Z,91.30
2022-11-28T01:13:49.376Z,91.40
2022-11-28T01:16:16.426Z,91.40
2022-11-28T01:18:43.533Z,91.30
2022-11-28T01:21:10.395Z,91.30
2022-11-28T01:23:37.691Z,91.30
2022-11-28T01:26:06.627Z,91.30
2022-11-28T01:28:34.263Z,91.30
2022-11-28T01:31:06.550Z,91.30
2022-11-28T01:33:33.737Z,91.40
2022-11-28T01:36:00.581Z,91.30
2022-11-28T01:38:28.226Z,91.20
2022-11-28T01:40:56.111Z,91.10
2022-11-28T01:43:24.368Z,91.10
2022-11-28T01:45:51.723Z,91.00
2022-11-28T01:48:38.038Z,90.90
2022-11-28T01:51:07.954Z,90.90
2022-11-28T01:53:39.806Z,91.00
2022-11-28T01:56:12.433Z,91.20
2022-11-28T01:58:40.423Z,91.20
2022-11-28T02:01:07.784Z,91.30
2022-11-28T02:03:43.000Z,91.30
2022-11-28T02:06:11.587Z,91.40
2022-11-28T02:08:38.411Z,91.50
2022-11-28T02:11:55.819Z,91.40
2022-11-28T02:14:57.921Z,91.40
2022-11-28T02:17:36.702Z,91.60
2022-11-28T02:20:12.364Z,91.80
2022-11-28T02:23:05.044Z,91.90
2022-11-28T02:26:01.196Z,91.70
2022-11-28T02:29:05.368Z,91.60
2022-11-28T02:31:56.815Z,91.50
2022-11-28T02:34:46.910Z,91.00
2022-11-28T02:37:37.406Z,91.10
2022-11-28T02:40:24.812Z,91.10
2022-11-28T02:43:06.818Z,91.20
2022-11-28T02:46:18.850Z,91.30
2022-11-28T02:49:03.101Z,91.40
2022-11-28T02:51:36.301Z,91.50
2022-11-28T02:54:04.656Z,91.50
2022-11-28T02:56:31.577Z,91.30
2022-11-28T02:58:58.350Z,91.30
2022-11-28T03:01:31.901Z,91.30
2022-11-28T03:04:30.829Z,91.30
2022-11-28T03:07:00.816Z,91.30
2022-11-28T03:09:36.714Z,91.20
2022-11-28T03:12:13.218Z,91.20
2022-11-28T03:14:51.306Z,91.10
2022-11-28T03:17:39.966Z,91.10
2022-11-28T03:20:31.621Z,91.10
2022-11-28T03:23:29.025Z,91.10
2022-11-28T03:26:01.718Z,91.10
2022-11-28T03:28:43.535Z,91.30
2022-11-28T03:31:20.090Z,91.30
2022-11-28T03:33:54.111Z,91.40
2022-11-28T03:36:28.778Z,91.20
2022-11-28T03:39:00.920Z,91.10
2022-11-28T03:41:39.015Z,91.30
2022-11-28T03:44:11.463Z,91.00
2022-11-28T03:46:45.304Z,90.90
2022-11-28T03:49:17.933Z,91.00
2022-11-28T03:51:56.790Z,91.00
2022-11-28T03:54:32.745Z,91.00
2022-11-28T03:57:15.177Z,90.70
2022-11-28T03:59:54.315Z,90.70
2022-11-28T04:02:29.425Z,90.70
2022-11-28T04:05:09.823Z,90.70
2022-11-28T04:08:12.529Z,90.60
2022-11-28T04:10:56.711Z,90.70
2022-11-28T04:13:29.464Z,90.60
2022-11-28T04:16:19.593Z,90.60
2022-11-28T04:19:06.024Z,90.50
2022-11-28T04:21:55.361Z,90.40
2022-11-28T04:24:31.599Z,90.30
2022-11-28T04:27:07.126Z,90.30
2022-11-28T04:29:43.378Z,90.30
2022-11-28T04:32:12.671Z,90.20
2022-11-28T04:34:43.012Z,90.10
2022-11-28T04:37:14.419Z,90.10
2022-11-28T04:39:45.435Z,90.10
2022-11-28T04:42:20.315Z,90.10
2022-11-28T04:45:14.039Z,90.10
2022-11-28T04:47:41.344Z,90.10
2022-11-28T04:50:08.906Z,90.00
2022-11-28T04:53:17.167Z,90.00
2022-11-28T04:55:58.755Z,90.00
2022-11-28T04:58:35.175Z,90.00
2022-11-28T05:01:06.441Z,90.00
2022-11-28T05:03:33.702Z,90.00
2022-11-28T05:06:01.599Z,90.00
2022-11-28T05:08:28.390Z,89.90
2022-11-28T05:10:55.180Z,89.90
2022-11-28T05:13:22.021Z,89.90
2022-11-28T05:15:48.773Z,90.00
2022-11-28T05:18:15.554Z,90.00
2022-11-28T05:20:44.333Z,90.10
2022-11-28T05:23:11.122Z,90.10
2022-11-28T05:25:39.958Z,90.00
2022-11-28T05:28:06.789Z,90.00
2022-11-28T05:30:33.601Z,90.00
2022-11-28T05:33:00.793Z,90.00
2022-11-28T05:35:28.269Z,89.90
2022-11-28T05:37:55.658Z,89.90
2022-11-28T05:40:22.569Z,89.80
2022-11-28T05:42:49.475Z,89.80
2022-11-28T05:45:16.325Z,89.90
2022-11-28T05:47:43.091Z,90.00
2022-11-28T05:50:10.270Z,89.90
2022-11-28T05:52:37.013Z,89.90
2022-11-28T05:55:04.052Z,89.90
2022-11-28T05:57:32.254Z,89.90
2022-11-28T05:59:59.067Z,89.90
2022-11-28T06:02:26.125Z,89.90
2022-11-28T06:04:53.015Z,90.00
2022-11-28T06:07:20.119Z,90.00
2022-11-28T06:09:47.008Z,90.00
2022-11-28T06:12:13.836Z,90.00
2022-11-28T06:14:40.669Z,90.00
2022-11-28T06:17:07.516Z,90.00
2022-11-28T06:19:34.561Z,90.00
2022-11-28T06:22:01.365Z,90.00
2022-11-28T06:24:28.218Z,90.00
2022-11-28T06:26:55.293Z,90.00
2022-11-28T06:29:22.519Z,90.10
2022-11-28T06:31:49.332Z,90.20
2022-11-28T06:34:16.431Z,90.20
2022-11-28T06:36:44.294Z,90.20
2022-11-28T06:39:15.832Z,90.10
2022-11-28T06:41:43.224Z,90.10
2022-11-28T06:44:14.630Z,90.10
2022-11-28T06:46:41.824Z,90.10
2022-11-28T06:49:10.939Z,90.20
2022-11-28T06:51:37.703Z,90.10
2022-11-28T06:54:04.873Z,90.10
2022-11-28T06:56:32.158Z,90.10
2022-11-28T06:59:00.129Z,90.10
2022-11-28T07:01:30.160Z,90.10
2022-11-28T07:03:57.483Z,90.10
2022-11-28T07:06:25.745Z,90.10
2022-11-28T07:08:53.921Z,90.10
2022-11-28T07:11:24.426Z,90.00
2022-11-28T07:13:52.476Z,90.10
2022-11-28T07:16:28.298Z,90.10
2022-11-28T07:18:55.971Z,90.10
2022-11-28T07:21:24.046Z,90.10
2022-11-28T07:23:51.079Z,90.00
2022-11-28T07:26:20.252Z,90.00
2022-11-28T07:28:47.665Z,90.10
2022-11-28T07:31:20.922Z,90.10
2022-11-28T07:33:49.625Z,90.00
2022-11-28T07:36:26.028Z,90.10
2022-11-28T07:39:00.977Z,90.00
2022-11-28T07:41:28.773Z,90.10
2022-11-28T07:44:01.054Z,89.90
2022-11-28T07:46:29.339Z,89.80
2022-11-28T07:48:56.677Z,89.70
2022-11-28T07:51:32.945Z,89.80
2022-11-28T07:54:01.006Z,89.80
2022-11-28T07:56:57.115Z,89.70
2022-11-28T07:59:20.487Z,89.70
2022-11-28T08:01:48.742Z,89.70
2022-11-28T08:04:15.688Z,89.70
2022-11-28T08:06:44.308Z,89.80
2022-11-28T08:09:14.094Z,90.00
2022-11-28T08:11:41.431Z,89.80
2022-11-28T08:14:08.281Z,89.80
2022-11-28T08:16:36.892Z,90.00
2022-11-28T08:19:03.994Z,89.80
2022-11-28T08:21:32.817Z,89.70
2022-11-28T08:24:01.206Z,89.80
2022-11-28T08:26:30.975Z,89.90
2022-11-28T08:28:58.923Z,90.00
2022-11-28T08:31:29.156Z,90.00
2022-11-28T08:33:58.510Z,90.00
2022-11-28T08:36:25.273Z,90.00
2022-11-28T08:41:39.171Z,89.80
2022-11-28T08:44:05.980Z,90.00
2022-11-28T08:46:33.591Z,89.90
2022-11-28T08:49:04.268Z,89.60
2022-11-28T08:51:31.505Z,89.60
2022-11-28T08:53:59.791Z,89.50
2022-11-28T08:56:27.899Z,89.50
2022-11-28T08:58:55.144Z,89.50
2022-11-28T09:01:24.699Z,89.60
2022-11-28T09:03:52.176Z,89.60
2022-11-28T09:06:20.601Z,89.50
2022-11-28T09:08:48.519Z,89.60
2022-11-28T09:11:17.423Z,89.60
2022-11-28T09:13:44.835Z,89.50
2022-11-28T09:16:12.371Z,89.60
2022-11-28T09:18:39.205Z,89.60
2022-11-28T09:21:11.769Z,89.70
2022-11-28T09:23:39.125Z,89.60
2022-11-28T09:26:17.413Z,89.60
2022-11-28T09:28:44.583Z,89.60
2022-11-28T09:31:12.662Z,89.60
2022-11-28T09:33:39.903Z,89.60
2022-11-28T09:36:12.962Z,89.60
2022-11-28T09:38:40.343Z,90.00
2022-11-28T09:41:30.501Z,90.10
2022-11-28T09:44:18.461Z,90.10
2022-11-28T09:46:48.123Z,90.10
2022-11-28T09:49:39.894Z,90.30
2022-11-28T09:52:16.819Z,90.20
2022-11-28T09:54:51.527Z,90.30
2022-11-28T09:57:35.984Z,90.20
2022-11-28T10:00:03.917Z,90.20
2022-11-28T10:02:42.235Z,90.10
2022-11-28T10:05:24.365Z,90.10
2022-11-28T10:08:00.052Z,90.20
2022-11-28T10:10:45.886Z,90.20
2022-11-28T10:13:20.690Z,90.20
2022-11-28T10:15:56.315Z,90.20
2022-11-28T10:18:32.222Z,90.20
2022-11-28T10:21:04.674Z,90.40
2022-11-28T10:23:43.217Z,90.40
2022-11-28T10:26:29.129Z,90.40
2022-11-28T10:28:57.976Z,90.50
2022-11-28T10:31:34.907Z,90.50
2022-11-28T10:34:14.746Z,90.40
2022-11-28T10:36:52.280Z,90.20
2022-11-28T10:39:19.318Z,90.30
2022-11-28T10:42:13.964Z,90.40
2022-11-28T10:45:18.106Z,90.50
2022-11-28T10:48:38.103Z,90.50
2022-11-28T10:51:22.453Z,90.50
2022-11-28T10:54:01.176Z,90.30
2022-11-28T10:56:44.663Z,90.30
2022-11-28T10:59:29.078Z,90.30
2022-11-28T11:01:58.114Z,90.20
2022-11-28T11:04:27.095Z,90.30
2022-11-28T11:07:16.165Z,90.20
2022-11-28T11:09:45.917Z,90.20
2022-11-28T11:12:21.472Z,90.00
2022-11-28T11:14:48.347Z,90.10
2022-11-28T11:17:30.125Z,90.10
2022-11-28T11:20:01.725Z,90.00
2022-11-28T11:22:31.961Z,89.60
2022-11-28T11:25:15.438Z,89.40
2022-11-28T11:27:53.298Z,89.40
2022-11-28T11:30:28.878Z,89.90
2022-11-28T11:32:57.859Z,89.80
2022-11-28T11:35:27.882Z,89.90
2022-11-28T11:38:14.893Z,89.90
2022-11-28T11:40:41.764Z,89.60
2022-11-28T11:43:31.195Z,89.60
2022-11-28T11:46:15.411Z,89.60
2022-11-28T11:48:45.280Z,89.60
2022-11-28T11:51:38.012Z,89.50
2022-11-28T11:54:16.753Z,89.30
2022-11-28T11:56:47.072Z,89.70
2022-11-28T11:59:18.332Z,89.70
2022-11-28T12:01:47.662Z,89.60
2022-11-28T12:04:45.857Z,89.80
2022-11-28T12:08:00.734Z,90.00
2022-11-28T12:10:35.733Z,89.80
2022-11-28T12:13:03.110Z,89.80
2022-11-28T12:15:46.701Z,89.80
2022-11-28T12:18:57.812Z,90.00
2022-11-28T12:21:48.837Z,89.90
2022-11-28T12:24:20.382Z,90.00
2022-11-28T12:27:12.058Z,90.10
2022-11-28T12:29:51.875Z,90.00
2022-11-28T12:32:18.888Z,89.80
2022-11-28T12:35:00.897Z,89.60
2022-11-28T12:38:10.825Z,89.60
2022-11-28T12:40:51.331Z,89.90
2022-11-28T12:43:55.793Z,89.60
2022-11-28T12:47:02.264Z,89.20
2022-11-28T12:50:01.508Z,89.50
2022-11-28T12:52:53.053Z,89.60
2022-11-28T12:55:46.696Z,89.50
2022-11-28T12:58:21.918Z,89.60
2022-11-28T13:01:04.342Z,89.90
2022-11-28T13:04:01.860Z,89.90
2022-11-28T13:06:31.634Z,89.90
2022-11-28T13:09:26.051Z,90.00
2022-11-28T13:12:16.300Z,90.00
2022-11-28T13:14:57.452Z,90.00
2022-11-28T13:17:56.864Z,89.80
2022-11-28T13:20:33.063Z,89.60
2022-11-28T13:23:20.612Z,89.60
2022-11-28T13:26:11.512Z,89.60
2022-11-28T13:29:04.873Z,89.70
2022-11-28T13:32:02.218Z,89.70
2022-11-28T13:34:30.217Z,89.40
2022-11-28T13:40:13.535Z,89.40
2022-11-28T13:43:06.996Z,89.50
2022-11-28T13:45:42.278Z,89.60
2022-11-28T13:48:57.334Z,89.80
2022-11-28T13:51:30.969Z,89.70
2022-11-28T13:54:22.894Z,89.80
2022-11-28T13:57:12.854Z,90.00
2022-11-28T13:59:39.681Z,90.10
2022-11-28T14:02:41.869Z,90.10
2022-11-28T14:05:33.887Z,90.10
2022-11-28T14:08:02.214Z,90.10
2022-11-28T14:10:29.044Z,90.00
2022-11-28T14:13:28.031Z,90.00
2022-11-28T14:15:57.646Z,90.10
2022-11-28T14:18:56.660Z,90.10
2022-11-28T14:21:41.208Z,90.20
2022-11-28T14:24:16.759Z,90.20
2022-11-28T14:26:44.755Z,90.10
2022-11-28T14:29:24.670Z,90.00
2022-11-28T14:32:28.000Z,90.10
2022-11-28T14:34:48.433Z,90.10
2022-11-28T14:37:21.501Z,90.20
2022-11-28T14:39:49.631Z,90.20
2022-11-28T14:42:36.853Z,90.20
2022-11-28T14:45:31.045Z,90.10
2022-11-28T14:48:18.728Z,90.00
2022-11-28T14:50:59.424Z,90.00
2022-11-28T14:53:37.272Z,90.00
2022-11-28T14:56:22.439Z,90.00
2022-11-28T14:58:51.099Z,90.00
2022-11-28T15:01:38.972Z,89.90
2022-11-28T15:04:14.605Z,89.80
2022-11-28T15:06:42.028Z,89.70
2022-11-28T15:09:27.727Z,89.70
2022-11-28T15:12:17.825Z,89.90
2022-11-28T15:14:51.255Z,89.90
2022-11-28T15:17:23.766Z,90.00
2022-11-28T15:19:51.547Z,90.10
2022-11-28T15:22:41.900Z,90.20
2022-11-28T15:25:23.261Z,90.20
2022-11-28T15:27:50.230Z,90.20
2022-11-28T15:30:26.782Z,90.20
2022-11-28T15:32:59.723Z,90.20
2022-11-28T15:35:27.649Z,90.20
2022-11-28T15:37:57.322Z,90.30
2022-11-28T15:40:36.203Z,90.40
2022-11-28T15:43:09.503Z,90.40
2022-11-28T15:45:42.224Z,90.40
2022-11-28T15:48:28.489Z,90.30
2022-11-28T15:50:55.762Z,90.30
2022-11-28T15:53:22.804Z,90.30
2022-11-28T15:56:08.314Z,90.30
2022-11-28T15:58:35.584Z,90.30
2022-11-28T16:01:21.862Z,90.40
2022-11-28T16:03:59.948Z,90.50
2022-11-28T16:06:35.242Z,90.50
2022-11-28T16:09:04.502Z,90.50
2022-11-28T16:11:32.307Z,90.50
2022-11-28T16:14:01.519Z,90.60
2022-11-28T16:16:31.330Z,90.60
2022-11-28T16:19:01.764Z,90.70
2022-11-28T16:21:48.201Z,90.70
2022-11-28T16:24:26.947Z,90.70
2022-11-28T16:27:00.388Z,90.70
2022-11-28T16:29:34.816Z,90.70
2022-11-28T16:32:19.548Z,90.70
2022-11-28T16:34:48.940Z,90.60
2022-11-28T16:37:27.184Z,90.70
2022-11-28T16:40:06.731Z,90.70
2022-11-28T16:42:35.037Z,90.70
2022-11-28T16:45:21.248Z,90.80
2022-11-28T16:48:02.365Z,90.80
2022-11-28T16:50:29.269Z,90.80
2022-11-28T16:52:58.065Z,90.80
2022-11-28T16:55:30.896Z,90.80
2022-11-28T16:58:07.103Z,90.90
2022-11-28T17:00:34.786Z,90.90
2022-11-28T17:03:01.905Z,91.00
2022-11-28T17:05:28.804Z,91.00
2022-11-28T17:07:55.805Z,91.00
2022-11-28T17:10:24.935Z,91.00
2022-11-28T17:12:51.935Z,91.00
2022-11-28T17:15:21.874Z,91.00
2022-11-28T17:17:48.683Z,91.00
2022-11-28T17:20:17.625Z,91.00
2022-11-28T17:22:47.646Z,91.00
2022-11-28T17:25:19.675Z,91.00
2022-11-28T17:27:48.202Z,91.10
2022-11-28T17:30:17.687Z,91.10
2022-11-28T17:32:44.936Z,91.10
2022-11-28T17:35:16.640Z,91.10
2022-11-28T17:37:43.399Z,91.10
2022-11-28T17:40:28.978Z,91.00
2022-11-28T17:42:55.727Z,91.00
2022-11-28T17:45:22.888Z,91.00
2022-11-28T17:47:49.587Z,91.10
2022-11-28T17:50:17.569Z,91.00
2022-11-28T17:52:44.582Z,91.10
2022-11-28T17:55:11.383Z,91.10
2022-11-28T17:57:38.166Z,91.20
2022-11-28T18:00:06.691Z,91.10
2022-11-28T18:02:33.637Z,91.10
2022-11-28T18:05:00.667Z,91.10
2022-11-28T18:07:27.516Z,91.10
2022-11-28T18:09:54.315Z,91.10
2022-11-28T18:12:21.162Z,91.10
2022-11-28T18:14:47.894Z,91.10
2022-11-28T18:17:14.696Z,91.10
2022-11-28T18:19:41.540Z,91.10
2022-11-28T18:22:08.752Z,91.00
2022-11-28T18:24:35.570Z,91.00
2022-11-28T18:27:02.375Z,90.90
2022-11-28T18:29:29.263Z,90.90
2022-11-28T18:31:56.049Z,90.90
2022-11-28T18:34:23.983Z,91.00
2022-11-28T18:36:50.872Z,91.00
2022-11-28T18:39:17.636Z,91.10
2022-11-28T18:41:44.631Z,91.10
2022-11-28T18:44:11.948Z,91.00
2022-11-28T18:46:39.848Z,91.00
2022-11-28T18:49:08.053Z,91.00
2022-11-28T18:51:35.665Z,91.00
2022-11-28T18:54:06.777Z,91.10
2022-11-28T18:56:33.853Z,91.20
2022-11-28T18:59:00.710Z,91.20
2022-11-28T19:01:30.611Z,91.20
2022-11-28T19:04:00.246Z,91.30
2022-11-28T19:06:27.200Z,91.40
2022-11-28T19:08:56.500Z,91.50
2022-11-28T19:11:23.415Z,91.60
2022-11-28T19:13:53.750Z,91.60
2022-11-28T19:16:23.538Z,91.60
2022-11-28T19:18:50.549Z,91.60
2022-11-28T19:21:23.682Z,91.70
2022-11-28T19:23:51.441Z,91.70
2022-11-28T19:26:20.334Z,91.70
2022-11-28T19:28:47.264Z,91.60
2022-11-28T19:31:16.497Z,91.60
2022-11-28T19:33:44.171Z,91.60
2022-11-28T19:36:13.259Z,91.60
2022-11-28T19:38:41.125Z,91.60
2022-11-28T19:41:12.813Z,91.80
2022-11-28T19:43:40.431Z,91.80
2022-11-28T19:46:08.134Z,91.90
2022-11-28T19:48:37.385Z,91.90
2022-11-28T19:51:04.995Z,91.90
2022-11-28T19:53:33.664Z,92.00
2022-11-28T19:56:06.406Z,92.10
2022-11-28T19:58:35.462Z,92.10
2022-11-28T20:01:07.559Z,92.10
2022-11-28T20:03:35.611Z,92.10
2022-11-28T20:06:02.709Z,92.20
2022-11-28T20:08:29.483Z,92.20
2022-11-28T20:10:56.366Z,92.20
2022-11-28T20:13:23.139Z,92.30
2022-11-28T20:15:49.915Z,92.30
2022-11-28T20:18:16.827Z,92.40
2022-11-28T20:20:43.606Z,92.40
2022-11-28T20:23:10.414Z,92.60
2022-11-28T20:25:37.200Z,92.70
2022-11-28T20:28:04.191Z,92.70
2022-11-28T20:30:30.941Z,92.80
2022-11-28T20:32:57.799Z,92.80
2022-11-28T20:35:24.830Z,92.80
2022-11-28T20:37:51.610Z,92.70
2022-11-28T20:40:18.567Z,92.70
2022-11-28T20:42:45.338Z,92.60
2022-11-28T20:45:12.121Z,92.50
2022-11-28T20:47:38.996Z,92.50
2022-11-28T20:50:07.242Z,92.50
2022-11-28T20:52:34.018Z,92.50
2022-11-28T20:55:00.863Z,92.50
2022-11-28T20:57:27.819Z,92.50
2022-11-28T20:59:56.782Z,92.50
2022-11-28T21:02:24.037Z,92.60
2022-11-28T21:04:50.923Z,92.50
2022-11-28T21:07:18.531Z,92.50
2022-11-28T21:09:45.563Z,92.40
2022-11-28T21:12:14.527Z,92.30
2022-11-28T21:14:44.820Z,92.20
2022-11-28T21:17:11.601Z,92.20
2022-11-28T21:19:38.403Z,92.20
2022-11-28T21:22:05.245Z,92.10
2022-11-28T21:24:32.105Z,92.20
2022-11-28T21:26:58.911Z,92.20
2022-11-28T21:29:25.740Z,92.30
2022-11-28T21:31:52.719Z,92.40
2022-11-28T21:34:19.787Z,92.40
2022-11-28T21:36:47.493Z,92.50
2022-11-28T21:39:17.119Z,92.50
2022-11-28T21:41:44.144Z,92.50
2022-11-28T21:44:11.048Z,92.50
2022-11-28T21:46:38.000Z,92.60
2022-11-28T21:49:05.669Z,92.50
2022-11-28T21:51:32.515Z,92.50
2022-11-28T21:53:59.364Z,92.40
2022-11-28T21:56:26.457Z,92.40
2022-11-28T21:58:53.663Z,92.40
2022-11-28T22:01:21.338Z,92.30
2022-11-28T22:03:48.751Z,92.40
2022-11-28T22:06:16.934Z,92.50
2022-11-28T22:08:44.693Z,92.50
2022-11-28T22:11:13.355Z,92.50
2022-11-28T22:13:45.985Z,92.50
2022-11-28T22:16:15.399Z,92.60
2022-11-28T22:18:42.290Z,92.60
2022-11-28T22:21:49.484Z,92.60
2022-11-28T22:23:56.870Z,92.60
2022-11-28T22:26:23.760Z,92.50
2022-11-28T22:28:53.838Z,92.50
2022-11-28T22:31:21.250Z,92.50
2022-11-28T22:33:49.447Z,92.50
2022-11-28T22:36:18.847Z,92.50
2022-11-28T22:38:46.810Z,92.50
2022-11-28T22:41:21.942Z,92.40
2022-11-28T22:43:55.409Z,92.30
2022-11-28T22:46:22.343Z,92.20
2022-11-28T22:48:50.625Z,92.20
2022-11-28T22:51:20.808Z,92.20
2022-11-28T22:53:47.626Z,92.10
2022-11-28T22:56:15.630Z,92.10
2022-11-28T22:58:44.674Z,92.10
2022-11-28T23:01:17.676Z,92.10
2022-11-28T23:03:45.675Z,92.10
2022-11-28T23:06:18.882Z,92.10
2022-11-28T23:08:47.042Z,92.10
2022-11-28T23:11:19.324Z,92.20
2022-11-28T23:13:49.939Z,92.30
2022-11-28T23:16:19.222Z,92.40
2022-11-28T23:18:49.224Z,92.40
2022-11-28T23:21:17.530Z,92.40
2022-11-28T23:23:45.883Z,92.40
2022-11-28T23:26:19.375Z,92.50
2022-11-28T23:28:46.556Z,92.50
2022-11-28T23:31:23.305Z,92.40
2022-11-28T23:33:50.956Z,92.40
2022-11-28T23:36:23.388Z,92.30
2022-11-28T23:38:52.346Z,92.20
2022-11-28T23:41:19.890Z,92.10
2022-11-28T23:43:47.279Z,92.10
2022-11-28T23:46:15.478Z,92.10
2022-11-28T23:48:43.821Z,92.20
2022-11-28T23:51:12.891Z,92.20
2022-11-28T23:53:40.776Z,92.30
2022-11-28T23:56:13.455Z,92.30
2022-11-28T23:58:41.038Z,92.30
